sensor_id;sensor_type;location;lat;lon;timestamp;pressure;altitude;pressure_sealevel;temperature;humidity
41636;BME280;27623;51.966;4.602;2023-04-10T00:02:20;64314.22;;;11.44;72.85
41636;BME280;27623;51.966;4.602;2023-04-10T00:04:48;64310.97;;;11.41;73.17
41636;BME280;27623;51.966;4.602;2023-04-10T00:07:13;64299.44;;;11.44;72.93
41636;BME280;27623;51.966;4.602;2023-04-10T00:09:39;64301.31;;;11.34;72.60
41636;BME280;27623;51.966;4.602;2023-04-10T00:12:04;64316.81;;;11.36;73.40
41636;BME280;27623;51.966;4.602;2023-04-10T00:14:30;64266.72;;;11.28;73.31
41636;BME280;27623;51.966;4.602;2023-04-10T00:16:58;64308.44;;;11.33;73.29
41636;BME280;27623;51.966;4.602;2023-04-10T00:19:31;64312.41;;;11.40;73.55
41636;BME280;27623;51.966;4.602;2023-04-10T00:21:56;64291.88;;;11.30;73.92
41636;BME280;27623;51.966;4.602;2023-04-10T00:24:21;64320.44;;;11.38;73.16
41636;BME280;27623;51.966;4.602;2023-04-10T00:26:47;64287.50;;;11.26;73.62
41636;BME280;27623;51.966;4.602;2023-04-10T00:29:12;64239.56;;;11.33;73.87
41636;BME280;27623;51.966;4.602;2023-04-10T00:31:38;64254.41;;;11.12;75.15
41636;BME280;27623;51.966;4.602;2023-04-10T00:34:06;64228.41;;;11.04;74.84
41636;BME280;27623;51.966;4.602;2023-04-10T00:36:31;64289.94;;;11.16;75.36
41636;BME280;27623;51.966;4.602;2023-04-10T00:38:57;64270.91;;;11.29;74.50
41636;BME280;27623;51.966;4.602;2023-04-10T00:41:24;64280.06;;;11.21;75.04
41636;BME280;27623;51.966;4.602;2023-04-10T00:43:53;64277.75;;;11.10;74.70
41636;BME280;27623;51.966;4.602;2023-04-10T00:46:19;64282.22;;;11.23;75.39
41636;BME280;27623;51.966;4.602;2023-04-10T00:48:44;64266.94;;;11.23;74.77
41636;BME280;27623;51.966;4.602;2023-04-10T00:51:10;64294.25;;;11.27;74.64
41636;BME280;27623;51.966;4.602;2023-04-10T00:53:38;64260.59;;;11.20;75.10
41636;BME280;27623;51.966;4.602;2023-04-10T00:56:07;64282.03;;;11.28;74.41
41636;BME280;27623;51.966;4.602;2023-04-10T00:58:32;64277.66;;;11.31;74.99
41636;BME280;27623;51.966;4.602;2023-04-10T01:00:57;64290.56;;;11.33;74.81
41636;BME280;27623;51.966;4.602;2023-04-10T01:03:23;64253.03;;;11.36;74.22
41636;BME280;27623;51.966;4.602;2023-04-10T01:05:58;64287.50;;;11.26;74.59
41636;BME280;27623;51.966;4.602;2023-04-10T01:08:52;64271.69;;;11.18;75.30
41636;BME280;27623;51.966;4.602;2023-04-10T01:13:55;64285.84;;;10.86;77.26
41636;BME280;27623;51.966;4.602;2023-04-10T01:16:50;64258.31;;;11.01;76.70
41636;BME280;27623;51.966;4.602;2023-04-10T01:21:53;64217.72;;;10.89;77.27
41636;BME280;27623;51.966;4.602;2023-04-10T01:27:25;64224.16;;;10.79;77.40
41636;BME280;27623;51.966;4.602;2023-04-10T01:29:56;64239.94;;;10.93;77.26
41636;BME280;27623;51.966;4.602;2023-04-10T01:32:23;64240.38;;;10.77;78.19
41636;BME280;27623;51.966;4.602;2023-04-10T01:34:53;64200.84;;;10.81;78.12
41636;BME280;27623;51.966;4.602;2023-04-10T01:37:30;64255.59;;;10.91;77.66
41636;BME280;27623;51.966;4.602;2023-04-10T01:40:01;64230.84;;;10.87;77.60
41636;BME280;27623;51.966;4.602;2023-04-10T01:42:30;64253.84;;;10.80;78.13
41636;BME280;27623;51.966;4.602;2023-04-10T01:44:57;64257.00;;;11.05;77.18
41636;BME280;27623;51.966;4.602;2023-04-10T01:47:24;64273.97;;;10.99;77.18
41636;BME280;27623;51.966;4.602;2023-04-10T01:49:52;64216.13;;;10.81;77.89
41636;BME280;27623;51.966;4.602;2023-04-10T01:52:20;64215.59;;;10.80;77.92
41636;BME280;27623;51.966;4.602;2023-04-10T01:54:48;64214.53;;;10.72;78.00
41636;BME280;27623;51.966;4.602;2023-04-10T01:57:16;64231.47;;;10.66;78.02
41636;BME280;27623;51.966;4.602;2023-04-10T01:59:41;64211.63;;;10.67;78.44
41636;BME280;27623;51.966;4.602;2023-04-10T02:02:07;64238.31;;;10.92;77.19
41636;BME280;27623;51.966;4.602;2023-04-10T02:04:35;64223.63;;;10.78;77.98
41636;BME280;27623;51.966;4.602;2023-04-10T02:07:15;64237.94;;;10.87;77.21
41636;BME280;27623;51.966;4.602;2023-04-10T02:12:49;64224.31;;;10.81;77.63
41636;BME280;27623;51.966;4.602;2023-04-10T02:15:20;64239.59;;;10.81;77.41
41636;BME280;27623;51.966;4.602;2023-04-10T02:17:47;64218.31;;;10.83;77.80
41636;BME280;27623;51.966;4.602;2023-04-10T02:20:14;64269.47;;;10.85;77.78
41636;BME280;27623;51.966;4.602;2023-04-10T02:22:41;64244.16;;;10.81;77.58
41636;BME280;27623;51.966;4.602;2023-04-10T02:25:10;64280.78;;;10.79;76.83
41636;BME280;27623;51.966;4.602;2023-04-10T02:27:37;64210.81;;;10.85;77.65
41636;BME280;27623;51.966;4.602;2023-04-10T02:30:03;64241.59;;;10.81;77.27
41636;BME280;27623;51.966;4.602;2023-04-10T02:32:29;64246.50;;;10.85;77.78
41636;BME280;27623;51.966;4.602;2023-04-10T02:34:55;64259.84;;;10.79;77.03
41636;BME280;27623;51.966;4.602;2023-04-10T02:37:21;64207.03;;;10.82;77.33
41636;BME280;27623;51.966;4.602;2023-04-10T02:39:46;64235.47;;;10.73;76.47
41636;BME280;27623;51.966;4.602;2023-04-10T02:42:12;64232.72;;;10.77;77.07
41636;BME280;27623;51.966;4.602;2023-04-10T02:44:37;64228.00;;;10.75;76.45
41636;BME280;27623;51.966;4.602;2023-04-10T02:47:04;64241.47;;;10.78;76.16
41636;BME280;27623;51.966;4.602;2023-04-10T02:49:30;64228.19;;;10.71;76.35
41636;BME280;27623;51.966;4.602;2023-04-10T02:51:55;64248.41;;;10.68;75.84
41636;BME280;27623;51.966;4.602;2023-04-10T02:54:21;64191.63;;;10.65;76.00
41636;BME280;27623;51.966;4.602;2023-04-10T02:56:46;64265.13;;;10.74;75.99
41636;BME280;27623;51.966;4.602;2023-04-10T02:59:12;64202.50;;;10.75;75.70
41636;BME280;27623;51.966;4.602;2023-04-10T03:01:37;64280.00;;;10.90;74.62
41636;BME280;27623;51.966;4.602;2023-04-10T03:04:03;64227.22;;;10.86;74.27
41636;BME280;27623;51.966;4.602;2023-04-10T03:06:29;64279.56;;;11.14;73.56
41636;BME280;27623;51.966;4.602;2023-04-10T03:08:55;64242.47;;;10.93;73.28
41636;BME280;27623;51.966;4.602;2023-04-10T03:11:21;64234.69;;;10.84;73.92
41636;BME280;27623;51.966;4.602;2023-04-10T03:13:46;64225.03;;;10.84;73.34
41636;BME280;27623;51.966;4.602;2023-04-10T03:16:13;64237.66;;;10.67;73.51
41636;BME280;27623;51.966;4.602;2023-04-10T03:18:41;64249.06;;;10.85;73.56
41636;BME280;27623;51.966;4.602;2023-04-10T03:21:07;64232.38;;;10.72;72.85
41636;BME280;27623;51.966;4.602;2023-04-10T03:23:32;64239.28;;;10.76;72.89
41636;BME280;27623;51.966;4.602;2023-04-10T03:25:57;64260.41;;;10.72;72.40
41636;BME280;27623;51.966;4.602;2023-04-10T03:28:23;64230.72;;;10.78;73.23
41636;BME280;27623;51.966;4.602;2023-04-10T03:30:49;64215.59;;;10.80;71.41
41636;BME280;27623;51.966;4.602;2023-04-10T03:33:15;64267.88;;;10.70;72.99
41636;BME280;27623;51.966;4.602;2023-04-10T03:35:40;64244.75;;;10.74;72.64
41636;BME280;27623;51.966;4.602;2023-04-10T03:38:06;64266.41;;;10.78;71.80
41636;BME280;27623;51.966;4.602;2023-04-10T03:40:32;64228.72;;;10.78;72.04
41636;BME280;27623;51.966;4.602;2023-04-10T03:42:58;64235.06;;;10.82;72.15
41636;BME280;27623;51.966;4.602;2023-04-10T03:45:24;64241.59;;;10.81;71.16
41636;BME280;27623;51.966;4.602;2023-04-10T03:47:50;64220.69;;;10.80;71.02
41636;BME280;27623;51.966;4.602;2023-04-10T03:50:16;64226.13;;;10.85;71.14
41636;BME280;27623;51.966;4.602;2023-04-10T03:52:41;64212.34;;;10.77;70.43
41636;BME280;27623;51.966;4.602;2023-04-10T03:55:07;64233.38;;;10.94;70.00
41636;BME280;27623;51.966;4.602;2023-04-10T03:57:32;64267.63;;;10.88;69.81
41636;BME280;27623;51.966;4.602;2023-04-10T04:00:00;64215.44;;;10.78;70.42
41636;BME280;27623;51.966;4.602;2023-04-10T04:02:26;64261.09;;;10.82;68.97
41636;BME280;27623;51.966;4.602;2023-04-10T04:04:52;64241.97;;;10.86;69.56
41636;BME280;27623;51.966;4.602;2023-04-10T04:07:17;64259.13;;;10.76;69.11
41636;BME280;27623;51.966;4.602;2023-04-10T04:09:43;64169.41;;;10.68;69.24
41636;BME280;27623;51.966;4.602;2023-04-10T04:12:09;64223.63;;;10.71;69.29
41636;BME280;27623;51.966;4.602;2023-04-10T04:14:36;64244.69;;;10.88;68.31
41636;BME280;27623;51.966;4.602;2023-04-10T04:17:02;64230.19;;;10.70;68.83
41636;BME280;27623;51.966;4.602;2023-04-10T04:19:30;64238.56;;;10.73;69.47
41636;BME280;27623;51.966;4.602;2023-04-10T04:21:57;64278.72;;;10.87;68.08
41636;BME280;27623;51.966;4.602;2023-04-10T04:24:24;64282.56;;;10.90;67.79
41636;BME280;27623;51.966;4.602;2023-04-10T04:26:49;64234.31;;;10.86;68.17
41636;BME280;27623;51.966;4.602;2023-04-10T04:29:15;64278.16;;;11.00;67.50
41636;BME280;27623;51.966;4.602;2023-04-10T04:31:40;64256.72;;;10.85;68.39
41636;BME280;27623;51.966;4.602;2023-04-10T04:34:06;64251.06;;;10.85;67.66
41636;BME280;27623;51.966;4.602;2023-04-10T04:36:31;64222.34;;;10.75;67.66
41636;BME280;27623;51.966;4.602;2023-04-10T04:38:56;64269.19;;;11.04;66.54
41636;BME280;27623;51.966;4.602;2023-04-10T04:41:22;64258.16;;;10.91;67.05
41636;BME280;27623;51.966;4.602;2023-04-10T04:43:47;64247.88;;;11.06;66.06
41636;BME280;27623;51.966;4.602;2023-04-10T04:46:13;64201.06;;;10.69;67.21
41636;BME280;27623;51.966;4.602;2023-04-10T04:48:39;64211.47;;;10.64;67.77
41636;BME280;27623;51.966;4.602;2023-04-10T04:51:07;64244.16;;;10.81;67.54
41636;BME280;27623;51.966;4.602;2023-04-10T04:53:32;64216.47;;;10.86;66.73
41636;BME280;27623;51.966;4.602;2023-04-10T04:55:57;64208.19;;;10.68;67.62
41636;BME280;27623;51.966;4.602;2023-04-10T04:58:23;64243.22;;;10.89;66.49
41636;BME280;27623;51.966;4.602;2023-04-10T05:00:50;64256.38;;;10.80;67.04
41636;BME280;27623;51.966;4.602;2023-04-10T05:03:15;64247.94;;;10.98;66.23
41636;BME280;27623;51.966;4.602;2023-04-10T05:05:41;64239.59;;;10.88;66.01
41636;BME280;27623;51.966;4.602;2023-04-10T05:08:07;64243.66;;;10.73;66.28
41636;BME280;27623;51.966;4.602;2023-04-10T05:10:32;64245.47;;;10.77;66.63
41636;BME280;27623;51.966;4.602;2023-04-10T05:12:57;64242.47;;;10.93;66.61
41636;BME280;27623;51.966;4.602;2023-04-10T05:15:23;64256.34;;;10.87;65.80
41636;BME280;27623;51.966;4.602;2023-04-10T05:17:48;64238.16;;;10.82;66.74
41636;BME280;27623;51.966;4.602;2023-04-10T05:20:17;64233.47;;;10.73;66.34
41636;BME280;27623;51.966;4.602;2023-04-10T05:22:46;64200.16;;;10.71;66.64
41636;BME280;27623;51.966;4.602;2023-04-10T05:25:11;64292.88;;;11.07;64.98
41636;BME280;27623;51.966;4.602;2023-04-10T05:27:37;64316.31;;;11.22;64.02
41636;BME280;27623;51.966;4.602;2023-04-10T05:30:02;64262.34;;;10.93;65.57
41636;BME280;27623;51.966;4.602;2023-04-10T05:32:28;64285.84;;;10.86;66.96
41636;BME280;27623;51.966;4.602;2023-04-10T05:34:53;64288.50;;;11.10;66.29
41636;BME280;27623;51.966;4.602;2023-04-10T05:37:19;64208.97;;;10.95;66.45
41636;BME280;27623;51.966;4.602;2023-04-10T05:39:44;64242.09;;;10.95;67.89
41636;BME280;27623;51.966;4.602;2023-04-10T05:42:10;64248.88;;;10.90;68.63
41636;BME280;27623;51.966;4.602;2023-04-10T05:44:35;64243.47;;;10.78;70.79
41636;BME280;27623;51.966;4.602;2023-04-10T05:47:03;64214.53;;;10.72;71.94
41636;BME280;27623;51.966;4.602;2023-04-10T05:49:28;64200.50;;;10.76;73.64
41636;BME280;27623;51.966;4.602;2023-04-10T05:51:54;64216.56;;;10.64;73.78
41636;BME280;27623;51.966;4.602;2023-04-10T05:54:19;64181.91;;;10.42;74.88
41636;BME280;27623;51.966;4.602;2023-04-10T05:56:45;64191.75;;;10.37;75.64
41636;BME280;27623;51.966;4.602;2023-04-10T05:59:10;64209.53;;;10.51;76.16
41636;BME280;27623;51.966;4.602;2023-04-10T06:01:36;64208.41;;;10.57;75.49
41636;BME280;27623;51.966;4.602;2023-04-10T06:04:04;64217.88;;;10.54;74.84
41636;BME280;27623;51.966;4.602;2023-04-10T06:06:30;64222.81;;;10.51;73.86
41636;BME280;27623;51.966;4.602;2023-04-10T06:08:57;64164.22;;;10.51;73.71
41636;BME280;27623;51.966;4.602;2023-04-10T06:11:22;64205.31;;;10.56;73.19
41636;BME280;27623;51.966;4.602;2023-04-10T06:13:50;64212.59;;;10.58;72.73
41636;BME280;27623;51.966;4.602;2023-04-10T06:16:17;64194.44;;;10.46;74.02
41636;BME280;27623;51.966;4.602;2023-04-10T06:18:43;64170.13;;;10.33;75.41
41636;BME280;27623;51.966;4.602;2023-04-10T06:21:08;64204.13;;;10.39;74.66
41636;BME280;27623;51.966;4.602;2023-04-10T06:23:34;64165.38;;;10.38;73.59
41636;BME280;27623;51.966;4.602;2023-04-10T06:26:00;64180.75;;;10.55;72.72
41636;BME280;27623;51.966;4.602;2023-04-10T06:28:25;64173.19;;;10.33;73.80
41636;BME280;27623;51.966;4.602;2023-04-10T06:30:51;64215.59;;;10.28;73.42
41636;BME280;27623;51.966;4.602;2023-04-10T06:33:16;64233.72;;;10.47;72.62
41636;BME280;27623;51.966;4.602;2023-04-10T06:35:44;64163.72;;;10.37;73.61
41636;BME280;27623;51.966;4.602;2023-04-10T06:38:09;64198.06;;;10.47;72.54
41636;BME280;27623;51.966;4.602;2023-04-10T06:40:35;64206.06;;;10.52;72.25
41636;BME280;27623;51.966;4.602;2023-04-10T06:43:00;64184.13;;;10.37;73.45
41636;BME280;27623;51.966;4.602;2023-04-10T06:45:26;64188.06;;;10.43;73.78
41636;BME280;27623;51.966;4.602;2023-04-10T06:47:52;64172.47;;;10.30;73.30
41636;BME280;27623;51.966;4.602;2023-04-10T06:50:17;64198.25;;;10.50;72.72
41636;BME280;27623;51.966;4.602;2023-04-10T06:52:43;64207.72;;;10.47;73.12
41636;BME280;27623;51.966;4.602;2023-04-10T06:55:09;64226.03;;;10.61;71.78
41636;BME280;27623;51.966;4.602;2023-04-10T06:57:36;64187.84;;;10.54;73.68
41636;BME280;27623;51.966;4.602;2023-04-10T07:00:02;64196.38;;;10.60;72.99
41636;BME280;27623;51.966;4.602;2023-04-10T07:02:27;64202.19;;;10.63;72.49
41636;BME280;27623;51.966;4.602;2023-04-10T07:04:52;64273.13;;;10.79;71.05
41636;BME280;27623;51.966;4.602;2023-04-10T07:07:18;64228.72;;;10.78;71.80
41636;BME280;27623;51.966;4.602;2023-04-10T07:09:46;64228.13;;;10.85;71.08
41636;BME280;27623;51.966;4.602;2023-04-10T07:12:11;64234.84;;;10.86;71.06
41636;BME280;27623;51.966;4.602;2023-04-10T07:14:37;64253.06;;;10.84;70.09
41636;BME280;27623;51.966;4.602;2023-04-10T07:17:02;64224.66;;;10.86;69.26
41636;BME280;27623;51.966;4.602;2023-04-10T07:19:27;64259.44;;;10.88;69.77
41636;BME280;27623;51.966;4.602;2023-04-10T07:21:53;64280.34;;;10.95;70.58
41636;BME280;27623;51.966;4.602;2023-04-10T07:24:18;64241.38;;;10.99;67.63
41636;BME280;27623;51.966;4.602;2023-04-10T07:26:44;64260.53;;;10.82;68.72
41636;BME280;27623;51.966;4.602;2023-04-10T07:29:10;64239.75;;;10.91;68.37
41636;BME280;27623;51.966;4.602;2023-04-10T07:31:36;64251.63;;;10.85;67.40
41636;BME280;27623;51.966;4.602;2023-04-10T07:34:04;64284.13;;;11.06;66.84
41636;BME280;27623;51.966;4.602;2023-04-10T07:36:30;64289.72;;;11.21;66.69
41636;BME280;27623;51.966;4.602;2023-04-10T07:38:56;64289.19;;;11.13;66.99
41636;BME280;27623;51.966;4.602;2023-04-10T07:41:21;64331.09;;;11.21;66.67
41636;BME280;27623;51.966;4.602;2023-04-10T07:43:48;64286.94;;;11.32;66.16
41636;BME280;27623;51.966;4.602;2023-04-10T07:46:16;64322.63;;;11.40;66.26
41636;BME280;27623;51.966;4.602;2023-04-10T07:48:44;64272.53;;;11.31;66.29
41636;BME280;27623;51.966;4.602;2023-04-10T07:51:11;64299.63;;;11.47;65.65
41636;BME280;27623;51.966;4.602;2023-04-10T07:53:36;64313.50;;;11.41;65.76
41636;BME280;27623;51.966;4.602;2023-04-10T07:56:02;64278.56;;;11.29;65.88
41636;BME280;27623;51.966;4.602;2023-04-10T07:58:28;64323.25;;;11.19;66.50
41636;BME280;27623;51.966;4.602;2023-04-10T08:00:53;64306.25;;;11.31;66.91
41636;BME280;27623;51.966;4.602;2023-04-10T08:03:18;64297.47;;;11.38;67.48
41636;BME280;27623;51.966;4.602;2023-04-10T08:05:44;64307.16;;;11.37;67.02
41636;BME280;27623;51.966;4.602;2023-04-10T08:08:09;64319.34;;;11.36;66.97
41636;BME280;27623;51.966;4.602;2023-04-10T08:10:35;64313.44;;;11.55;65.03
41636;BME280;27623;51.966;4.602;2023-04-10T08:13:04;64310.25;;;11.38;66.31
41636;BME280;27623;51.966;4.602;2023-04-10T08:15:32;64276.56;;;11.30;66.59
41636;BME280;27623;51.966;4.602;2023-04-10T08:17:58;64293.44;;;11.46;66.96
41636;BME280;27623;51.966;4.602;2023-04-10T08:20:26;64319.19;;;11.34;67.42
41636;BME280;27623;51.966;4.602;2023-04-10T08:22:52;64281.09;;;11.36;66.83
41636;BME280;27623;51.966;4.602;2023-04-10T08:25:20;64298.53;;;11.46;66.98
41636;BME280;27623;51.966;4.602;2023-04-10T08:27:45;64310.44;;;11.33;68.48
41636;BME280;27623;51.966;4.602;2023-04-10T08:30:11;64312.72;;;11.52;68.28
41636;BME280;27623;51.966;4.602;2023-04-10T08:32:37;64319.28;;;11.51;67.66
41636;BME280;27623;51.966;4.602;2023-04-10T08:35:03;64332.31;;;11.70;67.12
41636;BME280;27623;51.966;4.602;2023-04-10T08:37:28;64332.94;;;11.56;68.09
41636;BME280;27623;51.966;4.602;2023-04-10T08:39:54;64321.91;;;11.75;67.73
41636;BME280;27623;51.966;4.602;2023-04-10T08:42:19;64351.81;;;11.71;68.21
41636;BME280;27623;51.966;4.602;2023-04-10T08:44:47;64335.59;;;11.73;67.97
41636;BME280;27623;51.966;4.602;2023-04-10T08:47:13;64371.81;;;11.88;67.47
41636;BME280;27623;51.966;4.602;2023-04-10T08:52:14;64372.31;;;12.02;66.36
41636;BME280;27623;51.966;4.602;2023-04-10T08:54:42;64359.97;;;11.86;67.74
41636;BME280;27623;51.966;4.602;2023-04-10T08:57:14;64384.81;;;12.21;67.05
41636;BME280;27623;51.966;4.602;2023-04-10T08:59:48;64387.75;;;12.19;66.21
41636;BME280;27623;51.966;4.602;2023-04-10T09:02:14;64396.16;;;12.15;65.13
41636;BME280;27623;51.966;4.602;2023-04-10T09:04:47;64399.31;;;12.01;66.37
41636;BME280;27623;51.966;4.602;2023-04-10T09:07:16;64408.75;;;12.13;65.36
41636;BME280;27623;51.966;4.602;2023-04-10T09:09:42;64397.81;;;12.10;67.43
41636;BME280;27623;51.966;4.602;2023-04-10T09:12:08;64411.69;;;12.11;65.86
41636;BME280;27623;51.966;4.602;2023-04-10T09:14:36;64380.75;;;12.29;64.54
41636;BME280;27623;51.966;4.602;2023-04-10T09:19:40;64410.09;;;12.33;65.61
41636;BME280;27623;51.966;4.602;2023-04-10T09:22:05;64402.81;;;12.31;64.27
41636;BME280;27623;51.966;4.602;2023-04-10T09:24:35;64411.13;;;12.48;64.49
41636;BME280;27623;51.966;4.602;2023-04-10T09:27:02;64399.50;;;12.35;64.13
41636;BME280;27623;51.966;4.602;2023-04-10T09:32:05;64395.16;;;12.31;64.89
41636;BME280;27623;51.966;4.602;2023-04-10T09:34:31;64382.97;;;12.24;64.66
41636;BME280;27623;51.966;4.602;2023-04-10T09:36:57;64405.91;;;12.31;64.63
41636;BME280;27623;51.966;4.602;2023-04-10T09:39:37;64415.06;;;12.30;65.38
41636;BME280;27623;51.966;4.602;2023-04-10T09:42:07;64397.13;;;12.37;64.79
41636;BME280;27623;51.966;4.602;2023-04-10T09:44:37;64445.81;;;12.47;65.52
41636;BME280;27623;51.966;4.602;2023-04-10T09:47:21;64456.19;;;12.57;64.52
41636;BME280;27623;51.966;4.602;2023-04-10T09:49:57;64450.28;;;12.68;63.89
41636;BME280;27623;51.966;4.602;2023-04-10T09:52:33;64444.63;;;12.67;63.71
41636;BME280;27623;51.966;4.602;2023-04-10T09:55:03;64444.22;;;12.69;64.79
41636;BME280;27623;51.966;4.602;2023-04-10T09:57:30;64435.28;;;12.73;64.62
41636;BME280;27623;51.966;4.602;2023-04-10T10:00:00;64489.06;;;12.90;64.32
41636;BME280;27623;51.966;4.602;2023-04-10T10:02:28;64482.34;;;12.81;64.34
41636;BME280;27623;51.966;4.602;2023-04-10T10:04:57;64504.41;;;12.90;64.08
41636;BME280;27623;51.966;4.602;2023-04-10T10:07:25;64465.28;;;12.94;63.63
41636;BME280;27623;51.966;4.602;2023-04-10T10:09:51;64488.69;;;12.92;64.01
41636;BME280;27623;51.966;4.602;2023-04-10T10:12:44;64509.09;;;13.06;63.92
41636;BME280;27623;51.966;4.602;2023-04-10T10:17:44;64543.09;;;13.40;62.50
41636;BME280;27623;51.966;4.602;2023-04-10T10:20:17;64532.47;;;13.42;63.02
41636;BME280;27623;51.966;4.602;2023-04-10T10:22:44;64502.97;;;13.53;62.97
41636;BME280;27623;51.966;4.602;2023-04-10T10:25:12;64570.72;;;13.70;61.83
41636;BME280;27623;51.966;4.602;2023-04-10T10:27:38;64631.28;;;14.03;60.68
41636;BME280;27623;51.966;4.602;2023-04-10T10:30:06;64654.47;;;14.13;61.66
41636;BME280;27623;51.966;4.602;2023-04-10T10:32:34;64664.09;;;14.26;59.88
41636;BME280;27623;51.966;4.602;2023-04-10T10:35:01;64629.22;;;14.10;59.74
41636;BME280;27623;51.966;4.602;2023-04-10T10:37:28;64610.75;;;14.10;60.64
41636;BME280;27623;51.966;4.602;2023-04-10T10:42:29;64657.72;;;14.54;59.26
41636;BME280;27623;51.966;4.602;2023-04-10T10:45:12;64655.97;;;14.66;59.41
41636;BME280;27623;51.966;4.602;2023-04-10T10:47:46;64678.59;;;14.83;58.53
41636;BME280;27623;51.966;4.602;2023-04-10T10:50:13;64710.91;;;14.74;57.69
41636;BME280;27623;51.966;4.602;2023-04-10T10:52:49;64703.78;;;14.68;58.36
41636;BME280;27623;51.966;4.602;2023-04-10T10:58:08;64705.63;;;14.96;57.57
41636;BME280;27623;51.966;4.602;2023-04-10T11:06:01;64719.38;;;14.94;57.33
41636;BME280;27623;51.966;4.602;2023-04-10T11:08:37;64758.31;;;15.09;57.29
41636;BME280;27623;51.966;4.602;2023-04-10T11:11:10;64737.84;;;15.02;57.65
41636;BME280;27623;51.966;4.602;2023-04-10T11:13:38;64748.09;;;15.02;57.83
41636;BME280;27623;51.966;4.602;2023-04-10T11:16:08;64757.03;;;15.12;57.77
41636;BME280;27623;51.966;4.602;2023-04-10T11:21:12;64713.06;;;15.07;57.33
41636;BME280;27623;51.966;4.602;2023-04-10T11:26:35;64719.03;;;14.89;58.20
41636;BME280;27623;51.966;4.602;2023-04-10T11:29:04;64750.78;;;15.11;57.53
41636;BME280;27623;51.966;4.602;2023-04-10T11:31:31;64696.53;;;14.83;57.83
41636;BME280;27623;51.966;4.602;2023-04-10T11:34:03;64730.22;;;14.88;58.19
41636;BME280;27623;51.966;4.602;2023-04-10T11:36:29;64701.97;;;14.95;58.93
41636;BME280;27623;51.966;4.602;2023-04-10T11:39:00;64697.25;;;14.86;58.58
41636;BME280;27623;51.966;4.602;2023-04-10T11:44:00;64716.72;;;14.77;59.25
41636;BME280;27623;51.966;4.602;2023-04-10T11:46:26;64684.63;;;14.81;58.36
41636;BME280;27623;51.966;4.602;2023-04-10T11:48:56;64711.59;;;14.77;59.66
41636;BME280;27623;51.966;4.602;2023-04-10T11:51:22;64695.53;;;14.67;59.11
41636;BME280;27623;51.966;4.602;2023-04-10T11:54:02;64735.22;;;14.78;59.75
41636;BME280;27623;51.966;4.602;2023-04-10T11:56:27;64709.88;;;14.59;59.55
41636;BME280;27623;51.966;4.602;2023-04-10T11:58:54;64720.81;;;14.69;59.59
41636;BME280;27623;51.966;4.602;2023-04-10T12:01:20;64670.06;;;14.70;59.69
41636;BME280;27623;51.966;4.602;2023-04-10T12:03:46;64686.97;;;14.62;59.70
41636;BME280;27623;51.966;4.602;2023-04-10T12:06:15;64669.72;;;14.65;60.80
41636;BME280;27623;51.966;4.602;2023-04-10T12:08:45;64684.22;;;14.59;61.47
41636;BME280;27623;51.966;4.602;2023-04-10T12:11:24;64713.66;;;14.70;60.62
41636;BME280;27623;51.966;4.602;2023-04-10T12:13:52;64692.66;;;14.62;61.10
41636;BME280;27623;51.966;4.602;2023-04-10T12:16:18;64685.28;;;14.67;61.30
41636;BME280;27623;51.966;4.602;2023-04-10T12:18:46;64673.59;;;14.61;61.57
41636;BME280;27623;51.966;4.602;2023-04-10T12:21:12;64705.47;;;14.62;61.89
41636;BME280;27623;51.966;4.602;2023-04-10T12:23:38;64711.69;;;14.63;62.71
41636;BME280;27623;51.966;4.602;2023-04-10T12:26:14;64671.78;;;14.57;65.08
41636;BME280;27623;51.966;4.602;2023-04-10T12:28:51;64684.47;;;14.55;65.18
41636;BME280;27623;51.966;4.602;2023-04-10T12:31:17;64692.31;;;14.57;65.88
41636;BME280;27623;51.966;4.602;2023-04-10T12:33:44;64660.50;;;14.49;66.37
41636;BME280;27623;51.966;4.602;2023-04-10T12:36:23;64672.00;;;14.53;66.45
41636;BME280;27623;51.966;4.602;2023-04-10T12:38:53;64639.25;;;14.46;66.73
41636;BME280;27623;51.966;4.602;2023-04-10T12:41:24;64649.91;;;14.44;67.29
41636;BME280;27623;51.966;4.602;2023-04-10T12:43:51;64663.84;;;14.38;70.07
41636;BME280;27623;51.966;4.602;2023-04-10T12:46:25;64623.41;;;14.31;70.53
41636;BME280;27623;51.966;4.602;2023-04-10T12:51:51;64607.03;;;14.16;74.94
41636;BME280;27623;51.966;4.602;2023-04-10T12:54:27;64611.53;;;13.99;77.30
41636;BME280;27623;51.966;4.602;2023-04-10T12:56:53;64584.81;;;13.98;79.81
41636;BME280;27623;51.966;4.602;2023-04-10T12:59:18;64627.81;;;13.97;80.61
41636;BME280;27623;51.966;4.602;2023-04-10T13:01:44;64578.34;;;13.77;80.92
41636;BME280;27623;51.966;4.602;2023-04-10T13:04:09;64614.56;;;13.83;82.46
41636;BME280;27623;51.966;4.602;2023-04-10T13:06:45;64621.66;;;13.89;84.28
41636;BME280;27623;51.966;4.602;2023-04-10T13:09:14;64589.75;;;13.71;86.28
41636;BME280;27623;51.966;4.602;2023-04-10T13:11:40;64551.84;;;13.48;86.79
41636;BME280;27623;51.966;4.602;2023-04-10T13:14:06;64552.13;;;13.60;89.21
41636;BME280;27623;51.966;4.602;2023-04-10T13:16:32;64511.25;;;13.46;87.99
41636;BME280;27623;51.966;4.602;2023-04-10T13:18:57;64517.13;;;13.42;89.88
41636;BME280;27623;51.966;4.602;2023-04-10T13:21:22;64533.41;;;13.40;91.76
41636;BME280;27623;51.966;4.602;2023-04-10T13:23:56;64514.59;;;13.35;95.51
41636;BME280;27623;51.966;4.602;2023-04-10T13:26:22;64515.31;;;13.38;94.25
41636;BME280;27623;51.966;4.602;2023-04-10T13:28:47;64551.50;;;13.43;97.12
41636;BME280;27623;51.966;4.602;2023-04-10T13:31:13;64550.09;;;13.30;97.35
41636;BME280;27623;51.966;4.602;2023-04-10T13:33:45;64504.38;;;13.35;98.73
41636;BME280;27623;51.966;4.602;2023-04-10T13:36:12;64537.41;;;13.47;100.00
41636;BME280;27623;51.966;4.602;2023-04-10T13:38:38;64555.72;;;13.37;95.20
41636;BME280;27623;51.966;4.602;2023-04-10T13:41:04;64521.56;;;13.32;97.04
41636;BME280;27623;51.966;4.602;2023-04-10T13:43:32;64515.03;;;13.26;97.62
41636;BME280;27623;51.966;4.602;2023-04-10T13:45:57;64510.34;;;13.09;96.96